Time;durP1;ratioP1;P1;durP2;ratioP2;P2;SDS_P1;SDS_P2;PMS_P1;PMS_P2;Temp;Humidity;BMP_temperature;BMP_pressure;BME280_temperature;BME280_humidity;BME280_pressure;Samples;Min_cycle;Max_cycle;Signal;HPM_P1;HPM_P2
2022/01/24 00:01:08;;;;;;;19.52;17.13;;;;;;;;;;5056153;28;20099;-70
2022/01/24 00:03:34;;;;;;;20.15;17.42;;;;;;;;;;5053848;28;20114;-70
2022/01/24 00:05:59;;;;;;;18.90;16.90;;;;;;;;;;5056189;28;20476;-68
2022/01/24 00:08:25;;;;;;;18.38;16.40;;;;;;;;;;5059240;28;20036;-70
2022/01/24 00:10:52;;;;;;;17.30;15.50;;;;;;;;;;5055713;28;20116;-69
2022/01/24 00:16:58;;;;;;;17.25;15.52;;;;;;;;;;5058882;28;20218;-69
2022/01/24 00:26:53;;;;;;;29.83;18.23;;;;;;;;;;5053329;28;20043;-69
2022/01/24 00:29:22;;;;;;;20.02;17.55;;;;;;;;;;5057696;28;20028;-71
2022/01/24 00:31:49;;;;;;;20.65;16.88;;;;;;;;;;5048071;28;20040;-70
2022/01/24 00:34:15;;;;;;;20.45;17.67;;;;;;;;;;5054857;28;20398;-68
2022/01/24 00:36:42;;;;;;;21.40;18.08;;;;;;;;;;5056966;28;20051;-70
2022/01/24 00:39:08;;;;;;;27.75;19.67;;;;;;;;;;5060888;28;20031;-70
2022/01/24 00:41:46;;;;;;;31.35;21.73;;;;;;;;;;5049957;28;20120;-70
2022/01/24 00:55:01;;;;;;;19.00;17.30;;;;;;;;;;5054524;28;20040;-70
2022/01/24 00:57:27;;;;;;;22.17;19.15;;;;;;;;;;5051556;28;20044;-69
2022/01/24 00:59:52;;;;;;;20.40;18.30;;;;;;;;;;5053702;28;20519;-69
2022/01/24 01:02:19;;;;;;;21.85;19.13;;;;;;;;;;5064580;28;20047;-70
2022/01/24 01:07:18;;;;;;;21.10;18.58;;;;;;;;;;5055530;28;20127;-69
2022/01/24 01:23:21;;;;;;;22.00;19.33;;;;;;;;;;5055058;28;20551;-70
2022/01/24 01:25:48;;;;;;;21.35;18.80;;;;;;;;;;5062653;28;20059;-70
2022/01/24 01:28:15;;;;;;;23.13;19.30;;;;;;;;;;5071585;28;20120;-70
2022/01/24 01:30:45;;;;;;;27.38;20.00;;;;;;;;;;5061774;28;20040;-70
2022/01/24 01:33:31;;;;;;;25.10;20.25;;;;;;;;;;5056880;28;20041;-69
2022/01/24 01:57:19;;;;;;;22.42;18.73;;;;;;;;;;5054174;28;20040;-69
2022/01/24 01:59:45;;;;;;;20.55;18.42;;;;;;;;;;5061605;28;20029;-70
2022/01/24 02:02:11;;;;;;;22.45;19.25;;;;;;;;;;5076482;28;20039;-69
2022/01/24 02:04:37;;;;;;;23.27;19.15;;;;;;;;;;5056063;28;20472;-69
2022/01/24 02:07:03;;;;;;;20.50;18.30;;;;;;;;;;5056073;28;20106;-70
2022/01/24 02:09:31;;;;;;;21.42;18.42;;;;;;;;;;5059655;28;20668;-69
2022/01/24 02:11:57;;;;;;;21.42;18.30;;;;;;;;;;5070683;28;20111;-70
2022/01/24 02:14:30;;;;;;;21.08;18.75;;;;;;;;;;5054145;28;20504;-69
2022/01/24 02:17:03;;;;;;;22.70;18.45;;;;;;;;;;5062989;28;20135;-70
2022/01/24 02:24:56;;;;;;;19.90;17.33;;;;;;;;;;5059277;28;20351;-69
2022/01/24 02:27:23;;;;;;;19.88;17.77;;;;;;;;;;5051088;28;20051;-69
2022/01/24 02:32:15;;;;;;;21.65;19.27;;;;;;;;;;5053293;28;20553;-69
2022/01/24 02:34:43;;;;;;;26.70;19.50;;;;;;;;;;5065815;28;20040;-69
2022/01/24 02:37:15;;;;;;;23.37;19.20;;;;;;;;;;5051345;28;20033;-69
2022/01/24 02:39:47;;;;;;;24.23;19.65;;;;;;;;;;5049779;28;20287;-69
2022/01/24 02:53:05;;;;;;;18.35;16.55;;;;;;;;;;5050310;28;20047;-69
2022/01/24 02:55:32;;;;;;;19.60;17.80;;;;;;;;;;5047905;28;20245;-69
2022/01/24 02:57:58;;;;;;;20.73;18.58;;;;;;;;;;5049482;28;20450;-70
2022/01/24 03:00:23;;;;;;;20.17;18.00;;;;;;;;;;5054991;28;20036;-69
2022/01/24 03:02:49;;;;;;;19.48;17.02;;;;;;;;;;5067213;28;20024;-70
2022/01/24 03:05:15;;;;;;;20.05;17.70;;;;;;;;;;5049875;28;20032;-69
2022/01/24 03:07:40;;;;;;;21.20;19.05;;;;;;;;;;5048228;28;20094;-69
2022/01/24 03:10:13;;;;;;;18.90;17.00;;;;;;;;;;5053489;28;20040;-69
2022/01/24 03:12:43;;;;;;;19.15;17.02;;;;;;;;;;5056667;28;20041;-69
2022/01/24 03:15:10;;;;;;;18.98;17.10;;;;;;;;;;5045162;28;20488;-69
2022/01/24 03:17:35;;;;;;;19.45;17.40;;;;;;;;;;5060911;28;20428;-69
2022/01/24 03:20:01;;;;;;;18.20;16.40;;;;;;;;;;5062479;28;20176;-69
2022/01/24 03:22:26;;;;;;;19.52;17.73;;;;;;;;;;5047668;28;20036;-69
2022/01/24 03:24:52;;;;;;;19.10;17.38;;;;;;;;;;5046488;28;20048;-69
2022/01/24 03:27:18;;;;;;;19.42;17.48;;;;;;;;;;5048840;28;20131;-70
2022/01/24 03:29:43;;;;;;;19.88;17.83;;;;;;;;;;5037708;28;20114;-69
2022/01/24 03:32:09;;;;;;;19.02;17.27;;;;;;;;;;5049596;28;20154;-70
2022/01/24 03:34:34;;;;;;;20.05;18.15;;;;;;;;;;5048831;28;20049;-70
2022/01/24 03:37:00;;;;;;;18.98;17.17;;;;;;;;;;5046816;28;20029;-70
2022/01/24 03:39:26;;;;;;;20.63;18.58;;;;;;;;;;5049673;28;20475;-69
2022/01/24 03:41:52;;;;;;;19.45;17.63;;;;;;;;;;5047658;28;20036;-69
2022/01/24 03:44:19;;;;;;;20.83;18.83;;;;;;;;;;5056319;28;20047;-70
2022/01/24 03:47:19;;;;;;;20.73;18.67;;;;;;;;;;5053720;28;20079;-70
2022/01/24 03:49:45;;;;;;;20.70;18.60;;;;;;;;;;5046603;28;20194;-70
2022/01/24 03:52:18;;;;;;;22.17;19.88;;;;;;;;;;5062496;28;20495;-70
2022/01/24 03:54:45;;;;;;;25.02;21.75;;;;;;;;;;5049260;28;20159;-70
2022/01/24 03:57:13;;;;;;;33.30;24.75;;;;;;;;;;5045121;28;20033;-69
2022/01/24 03:59:40;;;;;;;36.15;25.52;;;;;;;;;;5050986;28;20037;-69
2022/01/24 04:02:06;;;;;;;39.05;26.55;;;;;;;;;;5048484;28;20033;-69
2022/01/24 04:04:31;;;;;;;38.80;27.00;;;;;;;;;;5045245;28;20043;-70
2022/01/24 04:06:57;;;;;;;36.45;26.10;;;;;;;;;;5046733;28;20392;-70
2022/01/24 04:09:23;;;;;;;45.30;27.58;;;;;;;;;;5048628;28;20515;-69
2022/01/24 04:11:53;;;;;;;36.17;26.27;;;;;;;;;;5048197;28;20098;-68
2022/01/24 04:14:28;;;;;;;32.03;24.20;;;;;;;;;;5060257;28;20483;-69
2022/01/24 04:22:34;;;;;;;29.55;23.55;;;;;;;;;;5046851;28;20063;-70
2022/01/24 04:25:03;;;;;;;31.45;23.38;;;;;;;;;;5047416;28;20044;-70
2022/01/24 04:27:29;;;;;;;27.70;22.92;;;;;;;;;;5052902;28;20074;-69
2022/01/24 04:29:55;;;;;;;28.42;21.95;;;;;;;;;;5054220;28;20469;-70
2022/01/24 04:32:21;;;;;;;32.63;25.20;;;;;;;;;;5050838;28;20061;-69
2022/01/24 04:34:47;;;;;;;41.63;26.00;;;;;;;;;;5051389;28;20123;-70
2022/01/24 04:37:13;;;;;;;45.05;27.45;;;;;;;;;;5056315;28;20516;-69
2022/01/24 04:39:39;;;;;;;47.55;29.98;;;;;;;;;;5055844;28;20032;-69
2022/01/24 04:42:17;;;;;;;39.65;26.02;;;;;;;;;;5053552;28;20036;-68
2022/01/24 04:44:53;;;;;;;48.67;27.10;;;;;;;;;;5046973;28;20085;-70
2022/01/24 04:53:01;;;;;;;40.22;23.73;;;;;;;;;;5050716;28;20041;-69
2022/01/24 04:55:22;;;;;;;30.70;23.17;;;;;;;;;;5046201;28;20032;-69
2022/01/24 04:57:48;;;;;;;31.33;23.02;;;;;;;;;;5046187;28;20024;-69
2022/01/24 05:00:14;;;;;;;33.20;22.58;;;;;;;;;;5047565;28;20060;-70
2022/01/24 05:02:40;;;;;;;24.63;21.98;;;;;;;;;;5061312;28;20036;-70
2022/01/24 05:05:09;;;;;;;29.17;23.17;;;;;;;;;;5056970;28;20029;-70
2022/01/24 05:07:35;;;;;;;26.83;20.95;;;;;;;;;;5044147;28;20389;-70
2022/01/24 05:10:31;;;;;;;29.55;21.02;;;;;;;;;;5046792;28;20504;-69
2022/01/24 05:23:37;;;;;;;30.27;22.45;;;;;;;;;;5049059;28;20036;-70
2022/01/24 05:26:05;;;;;;;38.45;22.33;;;;;;;;;;5046819;28;20029;-69
2022/01/24 05:28:33;;;;;;;32.40;22.92;;;;;;;;;;5049532;28;20041;-69
2022/01/24 05:30:59;;;;;;;27.10;21.02;;;;;;;;;;5042884;28;20045;-70
2022/01/24 05:33:26;;;;;;;30.08;21.80;;;;;;;;;;5047699;28;20045;-70
2022/01/24 05:35:52;;;;;;;27.13;22.55;;;;;;;;;;5050812;28;20040;-72
2022/01/24 05:38:17;;;;;;;37.28;23.63;;;;;;;;;;5043945;28;20439;-70
2022/01/24 05:40:44;;;;;;;42.97;24.95;;;;;;;;;;5046368;28;20033;-71
2022/01/24 05:43:10;;;;;;;36.05;23.42;;;;;;;;;;5049612;28;20469;-72
2022/01/24 05:45:36;;;;;;;46.85;25.90;;;;;;;;;;5046437;28;20492;-71
2022/01/24 05:48:02;;;;;;;47.65;27.30;;;;;;;;;;5056561;28;20029;-70
2022/01/24 05:50:28;;;;;;;42.42;25.55;;;;;;;;;;5052685;28;20063;-71
2022/01/24 05:52:54;;;;;;;44.70;25.27;;;;;;;;;;5050238;28;20040;-72
2022/01/24 05:55:19;;;;;;;44.88;26.15;;;;;;;;;;5056507;28;20223;-71
2022/01/24 05:57:45;;;;;;;36.28;23.88;;;;;;;;;;5051770;28;20028;-71
2022/01/24 06:00:13;;;;;;;38.13;24.52;;;;;;;;;;5056969;28;20038;-71
2022/01/24 06:02:39;;;;;;;38.75;24.85;;;;;;;;;;5054309;28;20059;-71
2022/01/24 06:05:05;;;;;;;35.67;23.02;;;;;;;;;;5063416;28;20037;-71
2022/01/24 06:07:31;;;;;;;38.92;22.75;;;;;;;;;;5050439;28;20068;-70
2022/01/24 06:09:56;;;;;;;35.65;22.67;;;;;;;;;;5053329;28;20495;-71
2022/01/24 06:12:23;;;;;;;34.58;24.23;;;;;;;;;;5051772;28;20110;-71
2022/01/24 06:14:49;;;;;;;40.80;24.88;;;;;;;;;;5055331;28;20114;-71
2022/01/24 06:17:15;;;;;;;44.22;24.52;;;;;;;;;;5042659;28;20064;-72
2022/01/24 06:19:41;;;;;;;34.15;23.58;;;;;;;;;;5054164;28;20091;-71
2022/01/24 06:22:06;;;;;;;36.35;24.00;;;;;;;;;;5051219;28;20033;-72
2022/01/24 06:24:32;;;;;;;32.90;23.73;;;;;;;;;;5055428;28;20408;-70
2022/01/24 06:26:58;;;;;;;37.53;24.05;;;;;;;;;;5053554;28;20067;-72
2022/01/24 06:29:23;;;;;;;43.72;28.25;;;;;;;;;;5064748;28;20092;-71
2022/01/24 06:31:49;;;;;;;41.30;26.00;;;;;;;;;;5054618;28;20037;-72
2022/01/24 06:34:14;;;;;;;46.13;27.85;;;;;;;;;;5044189;28;20029;-71
2022/01/24 06:36:40;;;;;;;45.22;28.70;;;;;;;;;;5049891;28;20495;-71
2022/01/24 06:39:06;;;;;;;54.55;30.83;;;;;;;;;;5035769;28;20039;-70
2022/01/24 06:41:34;;;;;;;64.18;31.63;;;;;;;;;;5061628;28;20033;-70
2022/01/24 06:44:02;;;;;;;56.53;32.47;;;;;;;;;;5049213;28;20400;-71
2022/01/24 06:46:28;;;;;;;59.47;30.92;;;;;;;;;;5052199;28;20107;-71
2022/01/24 06:48:54;;;;;;;65.80;33.15;;;;;;;;;;5049553;28;20121;-72
2022/01/24 06:51:20;;;;;;;77.15;36.58;;;;;;;;;;5054476;28;20496;-70
2022/01/24 06:53:47;;;;;;;61.25;33.95;;;;;;;;;;5050586;28;20032;-71
2022/01/24 06:56:14;;;;;;;66.05;37.95;;;;;;;;;;5051975;28;20055;-72
2022/01/24 06:58:40;;;;;;;53.63;33.35;;;;;;;;;;5049587;28;20098;-71
2022/01/24 07:01:06;;;;;;;53.63;32.33;;;;;;;;;;5043925;28;20476;-71
2022/01/24 07:03:31;;;;;;;46.33;30.27;;;;;;;;;;5048956;28;20060;-71
2022/01/24 07:05:57;;;;;;;44.53;27.67;;;;;;;;;;5053192;28;20150;-72
2022/01/24 07:08:23;;;;;;;43.13;25.77;;;;;;;;;;5049473;28;20114;-70
2022/01/24 07:10:49;;;;;;;45.10;30.67;;;;;;;;;;5041909;28;20039;-71
2022/01/24 07:13:15;;;;;;;36.08;24.25;;;;;;;;;;5048615;28;20559;-71
2022/01/24 07:15:53;;;;;;;31.13;24.98;;;;;;;;;;5045736;28;20041;-71
2022/01/24 07:20:55;;;;;;;36.45;26.80;;;;;;;;;;5055803;28;20037;-72
2022/01/24 07:23:20;;;;;;;36.25;26.05;;;;;;;;;;5052149;28;20071;-70
2022/01/24 07:25:46;;;;;;;42.72;27.98;;;;;;;;;;5056995;28;20064;-71
2022/01/24 07:28:16;;;;;;;37.67;26.83;;;;;;;;;;5053109;28;20551;-71
2022/01/24 07:30:43;;;;;;;36.40;26.00;;;;;;;;;;5048445;28;20029;-72
2022/01/24 07:33:08;;;;;;;32.38;24.70;;;;;;;;;;5052159;28;20029;-72
2022/01/24 07:35:34;;;;;;;32.10;23.15;;;;;;;;;;5058458;28;20067;-71
2022/01/24 07:38:00;;;;;;;30.73;23.25;;;;;;;;;;5042150;28;20032;-72
2022/01/24 07:40:27;;;;;;;30.77;22.50;;;;;;;;;;5048972;28;20032;-71
2022/01/24 07:45:20;;;;;;;27.40;23.45;;;;;;;;;;5056538;28;20029;-71
2022/01/24 07:47:49;;;;;;;30.33;23.65;;;;;;;;;;5052275;28;20036;-71
2022/01/24 07:50:21;;;;;;;29.70;22.70;;;;;;;;;;5049155;28;20049;-72
2022/01/24 07:52:46;;;;;;;24.98;21.95;;;;;;;;;;5054114;28;20098;-72
2022/01/24 07:55:12;;;;;;;29.08;24.83;;;;;;;;;;5055646;28;20076;-71
2022/01/24 07:57:38;;;;;;;45.20;28.00;;;;;;;;;;5049533;28;20036;-71
2022/01/24 08:00:06;;;;;;;42.70;29.88;;;;;;;;;;5045461;28;20501;-70
2022/01/24 08:02:38;;;;;;;55.83;31.65;;;;;;;;;;5046895;28;20029;-72
2022/01/24 08:05:05;;;;;;;32.55;23.02;;;;;;;;;;5050327;28;20076;-72
2022/01/24 08:07:31;;;;;;;29.30;22.50;;;;;;;;;;5048885;28;20033;-71
2022/01/24 08:09:57;;;;;;;36.28;25.55;;;;;;;;;;5048094;28;20048;-71
2022/01/24 08:12:23;;;;;;;55.22;35.33;;;;;;;;;;5048499;28;20036;-71
2022/01/24 08:14:49;;;;;;;55.17;36.13;;;;;;;;;;5049295;28;20463;-71
2022/01/24 08:17:14;;;;;;;29.77;23.80;;;;;;;;;;5048948;28;20041;-71
2022/01/24 08:19:40;;;;;;;50.15;32.10;;;;;;;;;;5048900;28;20094;-71
2022/01/24 08:22:06;;;;;;;31.98;25.45;;;;;;;;;;5048879;28;20383;-71
2022/01/24 08:24:32;;;;;;;24.67;21.23;;;;;;;;;;5048093;28;20091;-71
2022/01/24 08:26:57;;;;;;;27.35;21.33;;;;;;;;;;5048702;28;20392;-71
2022/01/24 08:29:23;;;;;;;28.08;23.85;;;;;;;;;;5055312;28;20255;-72
2022/01/24 08:31:49;;;;;;;38.90;24.95;;;;;;;;;;5054803;28;20517;-71
2022/01/24 08:34:14;;;;;;;38.30;27.13;;;;;;;;;;5057457;28;20044;-72
2022/01/24 08:36:40;;;;;;;24.80;20.60;;;;;;;;;;5047340;28;20037;-72
2022/01/24 08:39:08;;;;;;;22.92;20.48;;;;;;;;;;5053418;28;20090;-72
2022/01/24 08:41:43;;;;;;;27.15;22.23;;;;;;;;;;5053601;28;20032;-71
2022/01/24 08:46:49;;;;;;;24.52;20.88;;;;;;;;;;5048066;28;20040;-71
2022/01/24 08:49:15;;;;;;;22.88;20.63;;;;;;;;;;5047907;28;20048;-71
2022/01/24 08:51:41;;;;;;;22.80;20.50;;;;;;;;;;5044804;28;20707;-72
2022/01/24 08:54:07;;;;;;;23.05;20.85;;;;;;;;;;5048205;28;20037;-71
2022/01/24 08:56:34;;;;;;;34.35;24.05;;;;;;;;;;5047439;28;20033;-71
2022/01/24 08:59:01;;;;;;;102.13;43.13;;;;;;;;;;5046862;28;20099;-71
2022/01/24 09:01:27;;;;;;;26.17;23.25;;;;;;;;;;5052737;28;20043;-72
2022/01/24 09:03:52;;;;;;;34.88;26.05;;;;;;;;;;5055608;28;20041;-71
2022/01/24 09:06:20;;;;;;;30.70;24.25;;;;;;;;;;5046397;28;20108;-71
2022/01/24 09:08:48;;;;;;;24.85;21.55;;;;;;;;;;5046146;28;20036;-72
2022/01/24 09:11:14;;;;;;;30.55;23.40;;;;;;;;;;5044265;28;20051;-71
2022/01/24 09:13:39;;;;;;;54.53;33.60;;;;;;;;;;5052481;28;20040;-72
2022/01/24 09:16:05;;;;;;;21.85;19.75;;;;;;;;;;5050012;28;20033;-71
2022/01/24 09:18:31;;;;;;;23.42;19.67;;;;;;;;;;5046932;28;20033;-71
2022/01/24 09:20:56;;;;;;;22.23;19.88;;;;;;;;;;5052265;28;20144;-71
2022/01/24 09:23:23;;;;;;;23.02;20.73;;;;;;;;;;5051194;28;20044;-72
2022/01/24 09:25:50;;;;;;;21.05;19.05;;;;;;;;;;5051395;28;20033;-71
2022/01/24 09:28:16;;;;;;;49.25;30.05;;;;;;;;;;5052174;28;20103;-72
2022/01/24 09:30:42;;;;;;;65.03;33.33;;;;;;;;;;5052600;28;20575;-72
2022/01/24 09:33:11;;;;;;;22.95;20.35;;;;;;;;;;5051806;28;20104;-71
2022/01/24 09:35:38;;;;;;;52.88;30.08;;;;;;;;;;5050712;28;20033;-71
2022/01/24 09:38:05;;;;;;;20.27;18.48;;;;;;;;;;5050402;28;20029;-71
2022/01/24 09:40:32;;;;;;;20.85;18.95;;;;;;;;;;5050037;28;20051;-71
2022/01/24 09:42:59;;;;;;;19.35;17.50;;;;;;;;;;5049153;28;20045;-71
2022/01/24 09:45:24;;;;;;;19.88;18.20;;;;;;;;;;5054787;28;20031;-70
2022/01/24 09:47:52;;;;;;;19.35;17.75;;;;;;;;;;5043564;28;20037;-71
2022/01/24 09:50:19;;;;;;;21.05;19.05;;;;;;;;;;5042979;28;20037;-72
2022/01/24 09:52:46;;;;;;;21.73;19.70;;;;;;;;;;5050951;28;20033;-71
2022/01/24 09:55:13;;;;;;;19.23;17.52;;;;;;;;;;5054871;28;20036;-72
2022/01/24 09:57:41;;;;;;;19.85;18.15;;;;;;;;;;5060435;28;20415;-72
2022/01/24 10:00:10;;;;;;;20.23;18.58;;;;;;;;;;5056552;28;20039;-71
2022/01/24 10:02:40;;;;;;;19.08;17.17;;;;;;;;;;5052077;28;20033;-72
2022/01/24 10:05:17;;;;;;;17.42;16.10;;;;;;;;;;5050179;28;20029;-72
2022/01/24 10:08:05;;;;;;;16.65;15.25;;;;;;;;;;5048527;28;20116;-71
2022/01/24 10:10:38;;;;;;;16.98;15.57;;;;;;;;;;5049774;28;20037;-72
2022/01/24 10:19:08;;;;;;;17.70;16.30;;;;;;;;;;5049527;28;20400;-72
2022/01/24 10:21:49;;;;;;;16.60;15.40;;;;;;;;;;5050269;28;20041;-71
2022/01/24 10:24:34;;;;;;;17.15;15.55;;;;;;;;;;5050814;28;20405;-71
2022/01/24 10:27:23;;;;;;;15.05;13.75;;;;;;;;;;5046795;28;20033;-71
2022/01/24 10:29:58;;;;;;;16.00;14.70;;;;;;;;;;5049549;28;20127;-71
2022/01/24 10:32:30;;;;;;;16.02;14.85;;;;;;;;;;5055739;28;20085;-71
2022/01/24 10:34:56;;;;;;;16.42;15.23;;;;;;;;;;5054786;28;20488;-72
2022/01/24 10:37:23;;;;;;;15.20;14.20;;;;;;;;;;5053615;28;20040;-71
2022/01/24 10:40:05;;;;;;;15.05;13.88;;;;;;;;;;5049352;28;20476;-71
2022/01/24 10:42:46;;;;;;;15.82;14.63;;;;;;;;;;5044101;28;20065;-71
2022/01/24 10:45:17;;;;;;;15.60;14.20;;;;;;;;;;5044057;28;20618;-71
2022/01/24 10:47:45;;;;;;;16.25;14.85;;;;;;;;;;5046390;28;20052;-71
2022/01/24 10:50:32;;;;;;;15.13;13.93;;;;;;;;;;5051417;28;20025;-71
2022/01/24 10:53:08;;;;;;;14.55;13.63;;;;;;;;;;5048267;28;20033;-71
2022/01/24 10:55:35;;;;;;;14.25;13.20;;;;;;;;;;5053590;28;20029;-71
2022/01/24 10:58:08;;;;;;;14.80;13.77;;;;;;;;;;5052444;28;20059;-71
2022/01/24 11:00:35;;;;;;;15.23;14.23;;;;;;;;;;5048898;28;20032;-71
2022/01/24 11:03:03;;;;;;;15.70;14.68;;;;;;;;;;5049165;28;20060;-70
2022/01/24 11:05:39;;;;;;;15.50;14.50;;;;;;;;;;5048995;28;20047;-71
2022/01/24 11:08:09;;;;;;;14.70;13.70;;;;;;;;;;5041875;28;20033;-71
2022/01/24 11:10:39;;;;;;;14.57;13.48;;;;;;;;;;5044035;28;20049;-70
2022/01/24 11:13:06;;;;;;;14.75;13.52;;;;;;;;;;5049219;28;20036;-70
2022/01/24 11:15:33;;;;;;;14.75;13.75;;;;;;;;;;5048829;28;20032;-71
2022/01/24 11:18:00;;;;;;;15.43;14.32;;;;;;;;;;5047786;28;20544;-71
2022/01/24 11:20:31;;;;;;;19.15;16.58;;;;;;;;;;5057091;28;20044;-71
2022/01/24 11:23:00;;;;;;;15.23;13.93;;;;;;;;;;5049116;28;20029;-70
2022/01/24 11:25:31;;;;;;;21.90;19.58;;;;;;;;;;5049115;28;20060;-71
2022/01/24 11:27:56;;;;;;;16.70;15.60;;;;;;;;;;5048419;28;20032;-70
2022/01/24 11:30:28;;;;;;;13.90;13.00;;;;;;;;;;5057076;28;20047;-71
2022/01/24 11:32:58;;;;;;;15.65;14.45;;;;;;;;;;5053777;28;20120;-70
2022/01/24 11:35:50;;;;;;;14.35;13.45;;;;;;;;;;5049228;28;20442;-70
2022/01/24 11:38:37;;;;;;;14.40;13.50;;;;;;;;;;5059109;28;20487;-71
2022/01/24 11:41:04;;;;;;;15.57;14.57;;;;;;;;;;5037906;28;20330;-71
2022/01/24 11:43:35;;;;;;;14.93;13.70;;;;;;;;;;5045455;28;20032;-71
2022/01/24 11:46:25;;;;;;;15.52;14.45;;;;;;;;;;5048394;28;20048;-70
2022/01/24 11:49:10;;;;;;;13.90;13.00;;;;;;;;;;5045248;28;20476;-70
2022/01/24 11:51:38;;;;;;;15.95;14.65;;;;;;;;;;5045717;28;20043;-71
2022/01/24 11:54:04;;;;;;;15.63;14.65;;;;;;;;;;5046210;28;20033;-71
2022/01/24 11:56:32;;;;;;;16.50;15.40;;;;;;;;;;5045375;28;21217;-71
2022/01/24 11:59:16;;;;;;;14.88;13.88;;;;;;;;;;5042693;28;20454;-70
2022/01/24 12:01:42;;;;;;;15.48;14.38;;;;;;;;;;5043145;28;20098;-71
2022/01/24 12:04:08;;;;;;;15.07;14.00;;;;;;;;;;5046185;28;20072;-71
2022/01/24 12:07:16;;;;;;;16.77;15.68;;;;;;;;;;5044870;28;20029;-71
2022/01/24 12:09:42;;;;;;;16.60;15.35;;;;;;;;;;5055319;28;20075;-71
2022/01/24 12:12:56;;;;;;;15.07;14.07;;;;;;;;;;5045299;28;20063;-71
2022/01/24 12:15:36;;;;;;;17.75;16.45;;;;;;;;;;5041466;28;20101;-70
2022/01/24 12:18:27;;;;;;;15.77;14.48;;;;;;;;;;5061762;28;20032;-71
2022/01/24 12:20:57;;;;;;;13.95;13.05;;;;;;;;;;5073802;28;20643;-71
2022/01/24 12:23:27;;;;;;;18.73;16.83;;;;;;;;;;5048184;28;20043;-71
2022/01/24 12:26:07;;;;;;;16.13;15.02;;;;;;;;;;5038174;28;20028;-71
2022/01/24 12:28:42;;;;;;;16.42;15.07;;;;;;;;;;5050895;28;20032;-71
2022/01/24 12:31:08;;;;;;;15.25;14.25;;;;;;;;;;5043121;28;20105;-72
2022/01/24 12:33:36;;;;;;;16.05;14.95;;;;;;;;;;5035746;28;20560;-71
2022/01/24 12:36:08;;;;;;;14.55;13.63;;;;;;;;;;5042311;28;20353;-71
2022/01/24 12:38:51;;;;;;;15.27;14.23;;;;;;;;;;5047584;28;20523;-69
2022/01/24 12:41:36;;;;;;;16.05;15.00;;;;;;;;;;5047501;28;20058;-71
2022/01/24 12:46:29;;;;;;;16.10;14.73;;;;;;;;;;5046930;28;20037;-71
2022/01/24 12:48:57;;;;;;;14.50;13.50;;;;;;;;;;5063733;28;20044;-71
2022/01/24 12:51:24;;;;;;;15.10;14.18;;;;;;;;;;5050963;28;20044;-72
2022/01/24 12:53:51;;;;;;;14.65;13.70;;;;;;;;;;5049890;28;20024;-72
2022/01/24 12:56:18;;;;;;;14.68;13.68;;;;;;;;;;5041709;28;20030;-71
2022/01/24 12:58:49;;;;;;;14.70;13.77;;;;;;;;;;5047661;28;20503;-71
2022/01/24 13:01:27;;;;;;;14.73;13.82;;;;;;;;;;5050147;28;20044;-70
2022/01/24 13:03:56;;;;;;;14.18;13.07;;;;;;;;;;5042502;28;20668;-71
2022/01/24 13:06:22;;;;;;;;;;;;;;;;;;5042113;28;20547;-71
2022/01/24 13:08:55;;;;;;;15.05;13.73;;;;;;;;;;5040966;28;20443;-70
2022/01/24 13:11:20;;;;;;;14.95;13.77;;;;;;;;;;5046467;28;20447;-71
2022/01/24 13:14:11;;;;;;;15.70;14.50;;;;;;;;;;5043054;28;20127;-70
2022/01/24 13:25:20;;;;;;;15.07;13.88;;;;;;;;;;5046183;28;20113;-71
2022/01/24 13:28:05;;;;;;;15.07;14.02;;;;;;;;;;5049903;28;20070;-71
2022/01/24 13:30:37;;;;;;;15.00;13.70;;;;;;;;;;5045609;28;20069;-71
2022/01/24 13:33:05;;;;;;;15.13;14.10;;;;;;;;;;5039936;28;20082;-71
2022/01/24 13:35:33;;;;;;;15.15;13.93;;;;;;;;;;5058823;28;20049;-70
2022/01/24 13:38:14;;;;;;;15.05;14.05;;;;;;;;;;5048053;28;20051;-71
2022/01/24 13:40:54;;;;;;;14.70;13.70;;;;;;;;;;5046857;28;20047;-72
2022/01/24 13:43:38;;;;;;;14.88;13.77;;;;;;;;;;5041887;28;20052;-71
2022/01/24 13:46:06;;;;;;;14.77;13.77;;;;;;;;;;5045696;28;20027;-70
2022/01/24 13:48:50;;;;;;;14.73;13.50;;;;;;;;;;5046631;28;20036;-70
2022/01/24 13:51:19;;;;;;;14.68;13.68;;;;;;;;;;5047125;28;20087;-69
2022/01/24 13:53:47;;;;;;;14.43;13.52;;;;;;;;;;5046593;28;20040;-70
2022/01/24 13:56:17;;;;;;;15.13;14.10;;;;;;;;;;5050497;28;20058;-70
2022/01/24 13:59:16;;;;;;;14.60;13.30;;;;;;;;;;5053298;28;20124;-71
2022/01/24 14:01:57;;;;;;;14.55;13.48;;;;;;;;;;5048237;28;20072;-70
2022/01/24 14:04:34;;;;;;;14.98;13.98;;;;;;;;;;5044219;28;20033;-70
2022/01/24 14:07:05;;;;;;;14.25;13.13;;;;;;;;;;5051057;28;20059;-70
2022/01/24 14:09:40;;;;;;;15.70;14.30;;;;;;;;;;5049573;28;20036;-70
2022/01/24 14:12:08;;;;;;;15.20;13.88;;;;;;;;;;5050662;28;20033;-70
2022/01/24 14:14:45;;;;;;;14.13;13.07;;;;;;;;;;5050807;28;20033;-72
2022/01/24 14:19:39;;;;;;;15.93;14.63;;;;;;;;;;5048508;28;20424;-70
2022/01/24 14:22:11;;;;;;;13.93;12.93;;;;;;;;;;5051653;28;20726;-69
2022/01/24 14:24:54;;;;;;;19.45;17.38;;;;;;;;;;5050362;28;20037;-70
2022/01/24 14:27:38;;;;;;;15.10;13.90;;;;;;;;;;5052533;28;20040;-70
2022/01/24 14:30:11;;;;;;;14.98;13.80;;;;;;;;;;5045426;28;20052;-71
2022/01/24 14:32:48;;;;;;;16.67;15.18;;;;;;;;;;5044710;28;20025;-71
2022/01/24 14:35:19;;;;;;;14.88;13.57;;;;;;;;;;5045889;28;20209;-70
2022/01/24 14:37:56;;;;;;;15.23;13.98;;;;;;;;;;5048286;28;20163;-70
2022/01/24 14:41:02;;;;;;;24.75;19.92;;;;;;;;;;5049642;28;20520;-70
2022/01/24 14:46:17;;;;;;;14.38;13.38;;;;;;;;;;4963973;28;20037;-70
2022/01/24 14:48:48;;;;;;;14.25;12.95;;;;;;;;;;4983734;28;20046;-69
2022/01/24 14:51:17;;;;;;;40.55;36.30;;;;;;;;;;4977696;28;20050;-71
2022/01/24 14:53:44;;;;;;;17.70;16.40;;;;;;;;;;4971023;28;20102;-69
2022/01/24 14:56:12;;;;;;;22.77;20.77;;;;;;;;;;4975213;28;20030;-69
2022/01/24 14:58:38;;;;;;;16.58;15.15;;;;;;;;;;4968450;28;20458;-71
2022/01/24 15:01:03;;;;;;;17.42;16.02;;;;;;;;;;4972765;28;20135;-71
2022/01/24 15:03:29;;;;;;;18.50;16.63;;;;;;;;;;4964100;28;20054;-70
2022/01/24 15:05:56;;;;;;;15.88;14.55;;;;;;;;;;4970025;28;20038;-71
2022/01/24 15:08:22;;;;;;;16.45;15.15;;;;;;;;;;4971300;28;20314;-69
2022/01/24 15:10:48;;;;;;;31.63;28.33;;;;;;;;;;4974489;28;20039;-70
2022/01/24 15:13:16;;;;;;;17.75;16.27;;;;;;;;;;4981691;28;20058;-69
2022/01/24 15:15:51;;;;;;;15.95;14.75;;;;;;;;;;4971311;28;20058;-70
2022/01/24 15:24:25;;;;;;;15.77;14.50;;;;;;;;;;5045689;28;20116;-71
2022/01/24 15:26:43;;;;;;;15.13;14.02;;;;;;;;;;5052017;28;20078;-71
2022/01/24 15:29:08;;;;;;;15.93;14.73;;;;;;;;;;5049569;28;20028;-70
2022/01/24 15:31:34;;;;;;;22.20;14.75;;;;;;;;;;5050915;28;20083;-71
2022/01/24 15:34:01;;;;;;;14.35;12.95;;;;;;;;;;5056307;28;20083;-71
2022/01/24 15:36:27;;;;;;;16.35;14.90;;;;;;;;;;5048771;28;20120;-71
2022/01/24 15:38:57;;;;;;;15.75;14.43;;;;;;;;;;5050739;28;20341;-70
2022/01/24 15:41:23;;;;;;;14.60;13.38;;;;;;;;;;5047055;28;20067;-71
2022/01/24 15:48:42;;;;;;;16.08;14.73;;;;;;;;;;5048716;28;20535;-71
2022/01/24 15:51:12;;;;;;;15.90;14.50;;;;;;;;;;5049599;28;20348;-70
2022/01/24 15:53:43;;;;;;;;;;;;;;;;;;5049829;28;20059;-69
2022/01/24 15:56:15;;;;;;;18.02;16.63;;;;;;;;;;5055998;28;20367;-70
2022/01/24 15:58:41;;;;;;;18.27;16.15;;;;;;;;;;5046929;28;20025;-69
2022/01/24 16:01:07;;;;;;;15.57;14.27;;;;;;;;;;5047804;28;20127;-72
2022/01/24 16:03:32;;;;;;;35.97;25.83;;;;;;;;;;5049986;28;20055;-72
2022/01/24 16:05:58;;;;;;;16.75;15.07;;;;;;;;;;5051670;28;20032;-71
2022/01/24 16:08:23;;;;;;;16.48;14.77;;;;;;;;;;5046755;28;20037;-71
2022/01/24 16:10:49;;;;;;;15.93;14.52;;;;;;;;;;5047963;28;20036;-71
2022/01/24 16:13:17;;;;;;;18.40;16.48;;;;;;;;;;5063838;28;20049;-72
2022/01/24 16:15:43;;;;;;;17.08;15.52;;;;;;;;;;5054142;28;20045;-71
2022/01/24 16:18:14;;;;;;;17.02;15.40;;;;;;;;;;5048397;28;20029;-71
2022/01/24 16:21:14;;;;;;;16.52;15.15;;;;;;;;;;5048116;28;20037;-72
2022/01/24 16:23:33;;;;;;;17.08;15.45;;;;;;;;;;5046406;28;20068;-72
2022/01/24 16:25:59;;;;;;;18.08;16.38;;;;;;;;;;5063975;28;20515;-70
2022/01/24 16:28:26;;;;;;;16.00;14.50;;;;;;;;;;5051485;28;20103;-71
2022/01/24 16:30:57;;;;;;;16.08;14.52;;;;;;;;;;5046255;28;20032;-72
2022/01/24 16:33:24;;;;;;;16.50;15.07;;;;;;;;;;5047456;28;20040;-71
2022/01/24 16:35:54;;;;;;;17.15;15.68;;;;;;;;;;5048260;28;20065;-71
2022/01/24 16:38:22;;;;;;;17.38;15.77;;;;;;;;;;5050496;28;20033;-71
2022/01/24 16:40:59;;;;;;;16.97;15.63;;;;;;;;;;5045329;28;20060;-71
2022/01/24 16:48:41;;;;;;;17.65;15.95;;;;;;;;;;5048274;28;20028;-70
2022/01/24 16:51:09;;;;;;;19.52;17.75;;;;;;;;;;5052865;28;20040;-71
2022/01/24 16:53:36;;;;;;;124.43;45.97;;;;;;;;;;5047064;28;20028;-70
2022/01/24 16:56:03;;;;;;;27.60;20.85;;;;;;;;;;5059414;28;20403;-71
2022/01/24 16:58:30;;;;;;;26.50;21.10;;;;;;;;;;5047268;28;20125;-71